Time;durP1;ratioP1;P1;durP2;ratioP2;P2;SDS_P1;SDS_P2;PMS_P1;PMS_P2;Temp;Humidity;BMP_temperature;BMP_pressure;BME280_temperature;BME280_humidity;BME280_pressure;Samples;Min_cycle;Max_cycle;Signal;HPM_P1;HPM_P2
2023/09/02 00:02:27;;;;;;;4.85;1.20;;;16.70;99.90;;;;;;4920893;29;20211;-93
2023/09/02 00:04:58;;;;;;;2.10;0.80;;;16.80;99.90;;;;;;4948894;29;20199;-92
2023/09/02 00:07:30;;;;;;;2.95;0.90;;;16.90;99.90;;;;;;4942415;29;20224;-94
2023/09/02 00:10:02;;;;;;;3.47;1.00;;;16.80;99.90;;;;;;4928576;29;20217;-94
2023/09/02 00:12:33;;;;;;;1.85;0.70;;;17.00;99.90;;;;;;4920460;29;20193;-94
2023/09/02 00:15:04;;;;;;;3.78;0.85;;;17.00;99.90;;;;;;4935775;29;20204;-93
2023/09/02 00:17:37;;;;;;;4.07;0.80;;;16.90;99.90;;;;;;4935357;29;20199;-94
2023/09/02 00:20:09;;;;;;;4.18;0.93;;;17.10;99.90;;;;;;4935483;29;20307;-91
2023/09/02 00:22:40;;;;;;;3.60;0.90;;;17.20;99.90;;;;;;4953944;29;20290;-91
2023/09/02 00:25:11;;;;;;;4.07;1.02;;;17.20;99.90;;;;;;4947413;29;20196;-92
2023/09/02 00:27:42;;;;;;;2.95;0.80;;;17.30;99.90;;;;;;4955795;28;20231;-93
2023/09/02 00:30:14;;;;;;;2.13;0.88;;;17.50;99.90;;;;;;4955159;29;20223;-93
2023/09/02 00:32:50;;;;;;;3.03;0.90;;;17.50;99.90;;;;;;4955360;29;20206;-93
2023/09/02 00:35:21;;;;;;;4.05;0.80;;;17.50;99.90;;;;;;4954179;29;20226;-93
2023/09/02 00:37:52;;;;;;;4.32;0.93;;;17.70;99.90;;;;;;4945773;29;20575;-93
2023/09/02 00:40:25;;;;;;;3.47;0.90;;;17.90;99.90;;;;;;4935642;29;20220;-93
2023/09/02 00:42:58;;;;;;;4.05;0.98;;;18.00;99.90;;;;;;4935151;28;20207;-93
2023/09/02 00:45:29;;;;;;;1.95;0.80;;;18.10;99.90;;;;;;4937235;28;20569;-93
2023/09/02 00:48:03;;;;;;;10.13;1.10;;;18.10;99.90;;;;;;4933926;28;20203;-93
2023/09/02 00:50:36;;;;;;;4.90;0.82;;;18.20;99.90;;;;;;4932910;28;21222;-92
2023/09/02 00:53:07;;;;;;;2.72;0.82;;;18.20;99.90;;;;;;4934026;28;20332;-92
2023/09/02 00:55:39;;;;;;;4.20;1.10;;;18.30;99.90;;;;;;4934068;28;20239;-94
2023/09/02 00:58:10;;;;;;;1.90;0.60;;;18.30;99.90;;;;;;4934366;28;20677;-92
2023/09/02 01:00:41;;;;;;;1.80;0.80;;;18.30;99.90;;;;;;4932660;28;20214;-94
2023/09/02 01:03:14;;;;;;;4.25;1.05;;;18.50;99.90;;;;;;4940186;28;20200;-93
2023/09/02 01:05:45;;;;;;;3.75;0.60;;;18.50;99.90;;;;;;4930630;28;20227;-94
2023/09/02 01:08:19;;;;;;;3.83;0.82;;;18.40;99.90;;;;;;4931759;28;20216;-94
2023/09/02 01:10:50;;;;;;;2.92;0.70;;;18.30;99.90;;;;;;4934476;28;20259;-94
2023/09/02 01:13:23;;;;;;;4.18;0.93;;;18.30;99.90;;;;;;4931221;28;20215;-93
2023/09/02 01:15:54;;;;;;;6.38;0.93;;;18.30;99.90;;;;;;4933199;28;20211;-93
2023/09/02 01:18:28;;;;;;;3.00;1.00;;;18.40;99.90;;;;;;4932014;28;20695;-90
2023/09/02 01:21:34;;;;;;;3.72;1.00;;;18.40;99.90;;;;;;4936234;28;20208;-89
2023/09/02 01:24:40;;;;;;;4.30;1.17;;;18.50;99.90;;;;;;4946224;28;20692;-91
2023/09/02 01:27:25;;;;;;;2.70;0.90;;;18.70;99.90;;;;;;4934499;28;20215;-92
2023/09/02 01:30:02;;;;;;;4.43;1.17;;;18.70;99.90;;;;;;4936788;28;20825;-91
2023/09/02 01:32:37;;;;;;;5.55;1.10;;;18.70;99.90;;;;;;4937971;28;20230;-91
2023/09/02 01:35:09;;;;;;;4.63;1.10;;;18.80;99.90;;;;;;4925993;28;20745;-87
2023/09/02 01:37:44;;;;;;;5.35;0.80;;;18.90;99.90;;;;;;4928213;28;20960;-93
2023/09/02 01:40:22;;;;;;;3.05;0.77;;;19.00;99.90;;;;;;4931674;28;20305;-92
2023/09/02 01:42:58;;;;;;;6.90;0.73;;;19.10;99.90;;;;;;4935689;28;20287;-92
2023/09/02 01:45:33;;;;;;;4.60;1.00;;;19.20;99.90;;;;;;4958824;28;20253;-91
2023/09/02 01:48:06;;;;;;;3.35;0.90;;;19.10;99.90;;;;;;4976162;28;20210;-89
2023/09/02 01:50:39;;;;;;;2.60;0.75;;;19.20;99.90;;;;;;4973159;28;20230;-90
2023/09/02 01:53:10;;;;;;;3.95;0.70;;;19.10;99.90;;;;;;4938244;29;20204;-91
2023/09/02 01:55:41;;;;;;;3.08;0.80;;;19.20;99.90;;;;;;4937617;29;20596;-90
2023/09/02 01:58:15;;;;;;;4.05;1.10;;;19.30;99.90;;;;;;4945439;29;20562;-91
2023/09/02 02:00:47;;;;;;;2.63;0.75;;;19.40;99.90;;;;;;4957217;29;20208;-90
2023/09/02 02:03:23;;;;;;;3.38;0.80;;;19.50;99.90;;;;;;4964939;29;20200;-88
2023/09/02 02:05:56;;;;;;;2.58;0.68;;;19.40;99.90;;;;;;4956720;29;20188;-87
2023/09/02 02:08:39;;;;;;;3.72;0.63;;;19.50;99.90;;;;;;4956768;29;20200;-87
2023/09/02 02:11:11;;;;;;;4.82;1.00;;;19.60;99.90;;;;;;4939243;29;20234;-88
2023/09/02 02:13:45;;;;;;;1.50;0.60;;;19.40;99.90;;;;;;4922246;29;20196;-87
2023/09/02 02:16:16;;;;;;;3.88;0.68;;;19.40;99.90;;;;;;4937115;29;20224;-87
2023/09/02 02:18:47;;;;;;;4.20;1.00;;;19.50;99.90;;;;;;4936763;29;20192;-87
2023/09/02 02:21:18;;;;;;;5.05;1.00;;;19.50;99.90;;;;;;4936668;29;20204;-87
2023/09/02 02:23:48;;;;;;;4.43;0.80;;;19.50;99.90;;;;;;4951795;29;20223;-88
2023/09/02 02:26:20;;;;;;;2.75;0.55;;;19.60;99.90;;;;;;4956438;29;20556;-91
2023/09/02 02:28:53;;;;;;;1.50;0.75;;;19.70;99.90;;;;;;4952391;29;20293;-87
2023/09/02 02:31:24;;;;;;;2.75;0.63;;;19.70;99.90;;;;;;4936373;29;20221;-88
2023/09/02 02:33:55;;;;;;;5.13;0.90;;;19.70;99.90;;;;;;4952324;29;20305;-88
2023/09/02 02:36:27;;;;;;;3.95;0.70;;;19.80;99.90;;;;;;4937646;29;20201;-89
2023/09/02 02:38:58;;;;;;;3.45;0.80;;;19.80;99.90;;;;;;4931334;29;20668;-88
2023/09/02 02:41:28;;;;;;;4.68;1.60;;;19.90;99.90;;;;;;4941940;29;20210;-88
2023/09/02 02:44:01;;;;;;;6.00;2.03;;;19.90;99.90;;;;;;4947035;28;20212;-87
2023/09/02 02:46:47;;;;;;;6.03;1.65;;;19.90;99.90;;;;;;4935858;28;20204;-87
2023/09/02 02:49:18;;;;;;;5.35;0.90;;;19.90;99.90;;;;;;4943996;28;20613;-87
2023/09/02 02:51:49;;;;;;;6.15;1.08;;;20.00;99.90;;;;;;4941875;28;20208;-88
2023/09/02 02:54:20;;;;;;;2.83;0.82;;;20.10;99.90;;;;;;4943578;28;20239;-88
2023/09/02 02:56:51;;;;;;;4.28;0.80;;;20.20;99.90;;;;;;4940037;28;20224;-86
2023/09/02 02:59:23;;;;;;;6.50;1.00;;;20.20;99.90;;;;;;4940169;28;20474;-88
2023/09/02 03:01:55;;;;;;;4.97;1.23;;;20.20;99.90;;;;;;4943229;28;20208;-88
2023/09/02 03:04:26;;;;;;;2.55;0.80;;;20.20;99.90;;;;;;4942444;28;20207;-87
2023/09/02 03:06:56;;;;;;;3.20;1.00;;;20.10;99.90;;;;;;4945147;28;20196;-88
2023/09/02 03:09:27;;;;;;;5.57;1.10;;;20.10;99.90;;;;;;4941172;28;20211;-88
2023/09/02 03:11:58;;;;;;;2.65;1.02;;;20.00;99.90;;;;;;4943456;28;20298;-86
2023/09/02 03:14:31;;;;;;;3.70;0.70;;;19.90;99.90;;;;;;4929209;28;20214;-89
2023/09/02 03:17:02;;;;;;;4.15;0.77;;;20.00;99.90;;;;;;4945997;28;20208;-87
2023/09/02 03:19:34;;;;;;;2.92;0.77;;;20.10;99.90;;;;;;4948296;28;20205;-87
2023/09/02 03:22:04;;;;;;;2.40;0.60;;;20.00;99.90;;;;;;4948328;28;20750;-87
2023/09/02 03:24:35;;;;;;;3.70;0.93;;;20.10;99.90;;;;;;4946919;28;20192;-87
2023/09/02 03:27:06;;;;;;;3.13;1.00;;;20.00;99.90;;;;;;4950610;28;20204;-86
2023/09/02 03:29:40;;;;;;;2.08;1.02;;;19.90;99.90;;;;;;4951311;28;20204;-86
2023/09/02 03:32:10;;;;;;;4.65;1.85;;;19.80;99.90;;;;;;4972910;28;20255;-88
2023/09/02 03:34:41;;;;;;;4.40;1.63;;;19.90;99.90;;;;;;4969945;28;20200;-86
2023/09/02 03:37:12;;;;;;;4.55;1.00;;;19.90;99.90;;;;;;4966057;28;20192;-87
2023/09/02 03:39:43;;;;;;;1.10;0.57;;;20.00;99.90;;;;;;4960835;28;20204;-85
2023/09/02 03:42:14;;;;;;;5.55;0.70;;;20.00;99.90;;;;;;4960055;28;20206;-89
2023/09/02 03:44:49;;;;;;;2.78;0.85;;;20.10;99.90;;;;;;4972574;28;20199;-88
2023/09/02 03:47:20;;;;;;;4.80;1.08;;;20.10;99.90;;;;;;4969786;28;20223;-89
2023/09/02 03:49:53;;;;;;;1.65;0.70;;;20.10;99.90;;;;;;4974452;28;20223;-89
2023/09/02 03:52:24;;;;;;;5.40;1.38;;;19.90;99.90;;;;;;4969781;28;20212;-85
2023/09/02 03:54:55;;;;;;;4.90;0.90;;;19.90;99.90;;;;;;4955975;29;20234;-87
2023/09/02 03:57:25;;;;;;;3.00;0.85;;;19.80;99.90;;;;;;4959070;29;20234;-89
2023/09/02 03:59:59;;;;;;;4.35;1.20;;;19.70;99.90;;;;;;4940533;29;20272;-88
2023/09/02 04:02:33;;;;;;;4.47;1.88;;;19.70;99.90;;;;;;4926588;29;20196;-88
2023/09/02 04:05:06;;;;;;;7.03;1.80;;;19.60;99.90;;;;;;4955858;29;20210;-86
2023/09/02 04:07:38;;;;;;;6.93;1.73;;;19.60;99.90;;;;;;4937789;29;20652;-86
2023/09/02 04:10:09;;;;;;;3.42;1.58;;;19.60;99.90;;;;;;4940064;29;20714;-87
2023/09/02 04:12:40;;;;;;;6.57;1.50;;;19.60;99.90;;;;;;4936699;29;20189;-88
2023/09/02 04:15:15;;;;;;;5.75;1.40;;;19.50;99.90;;;;;;4946367;28;20200;-88
2023/09/02 04:17:45;;;;;;;5.30;1.02;;;19.50;99.90;;;;;;4936078;29;20260;-87
2023/09/02 04:20:17;;;;;;;2.58;1.00;;;19.50;99.90;;;;;;4935594;29;20197;-87
2023/09/02 04:22:47;;;;;;;5.22;1.15;;;19.40;99.90;;;;;;4934721;29;20200;-88
2023/09/02 04:25:19;;;;;;;5.55;1.40;;;19.40;99.90;;;;;;4946136;29;20188;-88
2023/09/02 04:27:53;;;;;;;3.85;1.27;;;19.30;99.90;;;;;;4943762;29;20204;-87
2023/09/02 04:30:31;;;;;;;6.35;1.00;;;19.30;99.90;;;;;;4942934;29;20207;-88
2023/09/02 04:33:02;;;;;;;6.40;1.10;;;19.30;99.90;;;;;;4938178;29;20580;-88
2023/09/02 04:35:37;;;;;;;4.85;1.48;;;19.30;99.90;;;;;;4951962;29;20668;-87
2023/09/02 04:38:08;;;;;;;3.13;1.38;;;19.20;99.90;;;;;;4935145;29;20201;-87
2023/09/02 04:40:40;;;;;;;4.95;0.88;;;19.20;99.90;;;;;;4941808;29;20193;-81
2023/09/02 04:43:13;;;;;;;3.88;1.17;;;19.30;99.90;;;;;;4940118;28;20223;-86
2023/09/02 04:45:46;;;;;;;3.47;0.80;;;19.10;99.90;;;;;;4928492;28;20200;-86
2023/09/02 04:48:17;;;;;;;3.67;0.82;;;19.20;99.90;;;;;;4929222;28;20196;-86
2023/09/02 04:50:55;;;;;;;5.47;0.95;;;19.10;99.90;;;;;;4931486;28;20238;-87
2023/09/02 04:53:26;;;;;;;5.30;1.20;;;19.10;99.90;;;;;;4932331;28;20203;-86
2023/09/02 04:56:00;;;;;;;2.60;0.80;;;19.10;99.90;;;;;;4933961;28;20197;-87
2023/09/02 04:58:31;;;;;;;1.70;0.80;;;19.00;99.90;;;;;;4931959;28;20200;-87
2023/09/02 05:03:57;;;;;;;4.13;0.75;;;19.20;99.90;;;;;;4931142;28;20515;-87
2023/09/02 05:06:28;;;;;;;2.15;0.70;;;19.30;99.90;;;;;;4932860;28;20234;-86
2023/09/02 05:09:13;;;;;;;5.78;1.23;;;19.20;99.90;;;;;;4936160;28;20200;-85
2023/09/02 05:11:44;;;;;;;2.85;0.82;;;19.20;99.90;;;;;;4939143;28;20343;-86
2023/09/02 05:14:15;;;;;;;3.08;0.80;;;19.10;99.90;;;;;;4942637;28;20193;-88
2023/09/02 05:16:48;;;;;;;1.98;0.70;;;19.10;99.90;;;;;;4929514;28;20567;-88
2023/09/02 05:19:23;;;;;;;3.67;0.80;;;19.10;99.90;;;;;;4952225;28;21780;-87
2023/09/02 05:21:54;;;;;;;2.28;0.70;;;19.20;99.90;;;;;;4932386;28;20215;-89
2023/09/02 05:24:26;;;;;;;4.82;0.90;;;19.20;99.90;;;;;;4946898;28;20227;-88
2023/09/02 05:26:57;;;;;;;3.75;0.50;;;19.20;99.90;;;;;;4947392;28;20208;-89
2023/09/02 05:29:28;;;;;;;3.17;0.82;;;19.20;99.90;;;;;;4945716;28;20212;-87
2023/09/02 05:32:02;;;;;;;2.30;0.70;;;19.10;99.90;;;;;;4949981;28;20220;-87
2023/09/02 05:34:32;;;;;;;2.10;0.80;;;19.10;99.90;;;;;;4948174;28;20208;-88
2023/09/02 05:37:04;;;;;;;4.75;1.33;;;19.10;99.90;;;;;;4946298;28;20224;-87
2023/09/02 05:39:35;;;;;;;3.17;1.00;;;19.10;99.90;;;;;;4945697;28;20200;-88
2023/09/02 05:42:11;;;;;;;4.80;1.30;;;19.10;99.90;;;;;;4946208;28;20195;-89
2023/09/02 05:44:43;;;;;;;3.47;1.30;;;19.10;99.90;;;;;;4963440;28;20199;-87
2023/09/02 05:47:16;;;;;;;4.65;0.95;;;19.10;99.90;;;;;;4952170;28;20203;-88
2023/09/02 05:49:47;;;;;;;4.38;1.00;;;19.00;99.90;;;;;;4940590;29;20217;-88
2023/09/02 05:52:18;;;;;;;3.50;0.70;;;19.10;99.90;;;;;;4971644;29;20226;-87
2023/09/02 05:54:50;;;;;;;2.38;0.82;;;19.10;99.90;;;;;;4958132;29;20228;-88
2023/09/02 05:57:20;;;;;;;3.83;1.00;;;19.10;99.90;;;;;;4927807;29;20271;-89
2023/09/02 05:59:51;;;;;;;2.88;0.90;;;19.10;99.90;;;;;;4937790;29;20232;-88
2023/09/02 06:02:24;;;;;;;4.00;1.23;;;19.10;99.90;;;;;;4937445;29;20196;-89
2023/09/02 06:04:56;;;;;;;3.15;1.30;;;19.10;99.90;;;;;;4937633;29;20224;-88
2023/09/02 06:07:26;;;;;;;3.58;0.73;;;19.20;99.90;;;;;;4944678;29;20204;-87
2023/09/02 06:09:57;;;;;;;5.03;0.95;;;19.20;99.90;;;;;;4947845;29;20200;-87
2023/09/02 06:12:30;;;;;;;2.70;0.73;;;19.30;99.90;;;;;;4959413;29;20228;-89
2023/09/02 06:15:01;;;;;;;1.95;0.60;;;19.30;99.90;;;;;;4956487;29;20203;-86
2023/09/02 06:17:44;;;;;;;3.30;0.90;;;19.50;99.90;;;;;;4955692;29;20202;-87
2023/09/02 06:20:20;;;;;;;3.30;0.90;;;19.60;99.90;;;;;;4957162;29;20204;-88
2023/09/02 06:22:51;;;;;;;3.70;1.00;;;19.60;99.90;;;;;;4940664;29;20196;-88
2023/09/02 06:25:22;;;;;;;2.25;0.63;;;19.70;99.90;;;;;;4931355;29;20200;-86
2023/09/02 06:27:53;;;;;;;3.78;0.82;;;19.80;99.90;;;;;;4940847;29;20279;-86
2023/09/02 06:30:24;;;;;;;2.22;1.08;;;19.70;99.90;;;;;;4948090;29;20206;-89
2023/09/02 06:32:57;;;;;;;3.85;1.10;;;19.50;99.90;;;;;;4950528;29;20230;-88
2023/09/02 06:35:32;;;;;;;4.47;1.42;;;19.50;99.90;;;;;;4954354;29;20219;-89
2023/09/02 06:38:03;;;;;;;2.42;0.70;;;19.60;99.90;;;;;;4949214;29;20192;-89
2023/09/02 06:40:35;;;;;;;3.97;1.00;;;19.50;99.90;;;;;;4958374;28;20192;-89
2023/09/02 06:43:06;;;;;;;2.10;0.95;;;19.50;99.90;;;;;;4951109;28;20200;-88
2023/09/02 06:45:37;;;;;;;3.60;0.77;;;19.40;99.90;;;;;;4946162;28;20216;-87
2023/09/02 06:48:11;;;;;;;2.35;0.65;;;19.30;99.90;;;;;;4938929;28;20176;-90
2023/09/02 06:50:42;;;;;;;2.50;0.70;;;19.20;99.90;;;;;;4947639;28;20680;-89
2023/09/02 06:53:13;;;;;;;1.48;0.52;;;19.20;99.90;;;;;;4943177;28;20207;-87
2023/09/02 06:55:44;;;;;;;2.83;0.90;;;19.00;99.90;;;;;;4942413;28;20329;-90
2023/09/02 06:58:15;;;;;;;2.05;0.80;;;18.80;99.90;;;;;;4943377;28;20200;-89
2023/09/02 07:00:48;;;;;;;3.13;1.05;;;18.80;99.90;;;;;;4946635;28;20204;-88
2023/09/02 07:03:20;;;;;;;3.92;1.33;;;18.70;99.90;;;;;;4948266;28;20208;-88
2023/09/02 07:05:52;;;;;;;2.60;1.10;;;18.60;99.90;;;;;;4948801;28;20210;-88
2023/09/02 07:08:22;;;;;;;2.05;0.95;;;18.40;99.90;;;;;;4946509;28;20204;-87
2023/09/02 07:10:54;;;;;;;1.67;1.00;;;18.30;99.90;;;;;;4947596;28;20227;-87
2023/09/02 07:13:24;;;;;;;4.05;1.50;;;18.20;99.90;;;;;;4943567;28;20208;-88
2023/09/02 07:16:02;;;;;;;5.78;2.50;;;18.10;99.90;;;;;;4942608;28;20212;-86
2023/09/02 07:18:35;;;;;;;3.60;1.58;;;18.10;99.90;;;;;;4946131;28;20203;-87
2023/09/02 07:21:07;;;;;;;3.35;1.10;;;18.10;99.90;;;;;;4949999;28;20203;-88
2023/09/02 07:23:38;;;;;;;3.78;1.27;;;18.00;99.90;;;;;;4950576;28;20541;-88
2023/09/02 07:26:10;;;;;;;2.97;0.88;;;17.90;99.90;;;;;;4946549;28;20668;-88
2023/09/02 07:28:42;;;;;;;2.00;0.93;;;17.80;99.90;;;;;;4947043;28;20208;-87
2023/09/02 07:31:15;;;;;;;2.95;0.73;;;17.80;99.90;;;;;;4949167;28;20291;-89
2023/09/02 07:33:47;;;;;;;2.38;0.65;;;17.60;99.90;;;;;;4948943;28;20200;-87
2023/09/02 07:36:18;;;;;;;2.25;0.75;;;17.60;99.90;;;;;;4943117;28;20240;-85
2023/09/02 07:38:49;;;;;;;3.83;0.80;;;17.60;99.90;;;;;;4937814;28;20208;-87
2023/09/02 07:41:20;;;;;;;4.05;1.00;;;17.70;99.90;;;;;;4947332;28;20196;-86
2023/09/02 07:43:51;;;;;;;3.22;1.02;;;17.70;99.90;;;;;;4953851;28;20215;-87
2023/09/02 07:46:22;;;;;;;8.02;3.00;;;17.60;99.90;;;;;;4947132;28;20201;-85
2023/09/02 07:48:56;;;;;;;7.53;2.83;;;17.60;99.90;;;;;;4962184;29;20581;-87
2023/09/02 07:51:27;;;;;;;10.40;4.68;;;17.50;99.90;;;;;;4959367;28;20227;-87
2023/09/02 07:53:58;;;;;;;8.15;4.20;;;17.40;99.90;;;;;;4954521;29;20708;-88
2023/09/02 07:56:32;;;;;;;53.97;36.42;;;17.30;99.90;;;;;;4954962;29;20576;-88
2023/09/02 07:59:05;;;;;;;11.77;7.10;;;17.20;99.90;;;;;;4954803;29;20627;-87
2023/09/02 08:01:36;;;;;;;7.65;4.22;;;17.20;99.90;;;;;;4958006;29;20199;-87
2023/09/02 08:04:10;;;;;;;7.75;2.92;;;17.10;99.90;;;;;;4968767;29;20252;-87
2023/09/02 08:06:42;;;;;;;3.00;2.33;;;17.10;99.90;;;;;;4958517;29;20191;-87
2023/09/02 08:09:14;;;;;;;4.68;3.03;;;17.10;99.90;;;;;;4960276;29;20192;-86
2023/09/02 08:11:45;;;;;;;4.30;2.95;;;17.00;99.90;;;;;;4974778;28;20204;-86
2023/09/02 08:14:16;;;;;;;7.82;3.60;;;16.90;99.90;;;;;;4967180;28;20207;-87
2023/09/02 08:16:46;;;;;;;14.68;10.60;;;16.90;99.90;;;;;;4964677;28;20183;-85
2023/09/02 08:19:23;;;;;;;7.15;4.90;;;17.00;99.90;;;;;;4957783;29;20181;-87
2023/09/02 08:21:56;;;;;;;10.55;8.38;;;16.90;99.90;;;;;;4956310;29;20256;-86
2023/09/02 08:24:27;;;;;;;8.02;6.20;;;16.90;99.90;;;;;;4960281;29;20256;-85
2023/09/02 08:26:58;;;;;;;12.85;8.32;;;16.90;99.90;;;;;;4945968;29;20197;-86
2023/09/02 08:29:29;;;;;;;9.88;6.70;;;16.80;99.90;;;;;;4936238;29;20200;-86
2023/09/02 08:32:00;;;;;;;9.93;6.75;;;16.80;99.90;;;;;;4944378;29;20224;-88
2023/09/02 08:34:37;;;;;;;14.80;11.73;;;16.70;99.90;;;;;;4949028;29;20220;-85
2023/09/02 08:37:08;;;;;;;8.80;6.93;;;16.80;99.90;;;;;;4951733;29;20287;-88
2023/09/02 08:39:40;;;;;;;6.65;5.95;;;16.70;99.90;;;;;;4938212;29;20204;-87
2023/09/02 08:42:12;;;;;;;9.10;5.18;;;16.70;99.90;;;;;;4944996;29;20206;-88
2023/09/02 08:44:43;;;;;;;18.23;13.75;;;16.70;99.90;;;;;;4940353;28;20207;-88
2023/09/02 08:47:14;;;;;;;17.70;11.05;;;16.70;99.90;;;;;;4940543;28;20196;-87
2023/09/02 08:49:47;;;;;;;35.15;26.60;;;16.60;99.90;;;;;;4942488;28;20472;-87
2023/09/02 08:52:19;;;;;;;6.53;3.88;;;16.60;99.90;;;;;;4940878;28;20220;-87
2023/09/02 08:54:51;;;;;;;8.63;6.07;;;16.60;99.90;;;;;;4939105;28;20238;-87
2023/09/02 08:57:23;;;;;;;7.15;4.47;;;16.60;99.90;;;;;;4929684;28;20216;-90
2023/09/02 08:59:54;;;;;;;6.80;3.85;;;16.60;99.90;;;;;;4923641;29;20214;-90
2023/09/02 09:02:28;;;;;;;9.43;4.57;;;16.60;99.90;;;;;;4919451;29;20200;-88
2023/09/02 09:05:15;;;;;;;6.75;3.00;;;16.60;99.90;;;;;;4914671;29;20203;-92
2023/09/02 09:07:51;;;;;;;4.43;1.90;;;16.60;99.90;;;;;;4915428;29;20240;-92
2023/09/02 09:10:25;;;;;;;5.25;2.20;;;16.60;99.90;;;;;;4914966;29;20270;-91
2023/09/02 09:12:57;;;;;;;8.57;3.83;;;16.60;99.90;;;;;;4916951;29;20300;-92
2023/09/02 09:15:29;;;;;;;5.45;3.60;;;16.50;99.90;;;;;;4923927;29;20687;-89
2023/09/02 09:18:00;;;;;;;5.72;2.40;;;16.50;99.90;;;;;;4919387;29;20226;-90
2023/09/02 09:20:37;;;;;;;4.50;1.70;;;16.50;99.90;;;;;;4912791;29;20216;-91
2023/09/02 09:23:10;;;;;;;4.25;2.13;;;16.50;99.90;;;;;;4913538;29;20605;-91
2023/09/02 09:25:40;;;;;;;3.78;1.70;;;16.50;99.90;;;;;;4912292;29;20197;-89
2023/09/02 09:28:13;;;;;;;3.97;1.25;;;16.50;99.90;;;;;;4915251;29;20204;-91
2023/09/02 09:30:44;;;;;;;3.38;1.40;;;16.50;99.90;;;;;;4920070;29;20204;-90
2023/09/02 09:33:16;;;;;;;2.33;1.20;;;16.50;99.90;;;;;;4912386;29;20275;-92
2023/09/02 09:35:50;;;;;;;3.13;1.67;;;16.50;99.90;;;;;;4915045;29;20708;-91
2023/09/02 09:38:22;;;;;;;3.53;1.80;;;16.50;99.90;;;;;;4903746;29;20211;-91
2023/09/02 09:40:54;;;;;;;3.95;2.25;;;16.50;99.90;;;;;;4930408;29;20617;-92
2023/09/02 09:43:27;;;;;;;5.13;2.55;;;16.50;99.90;;;;;;4925930;29;20272;-91
2023/09/02 09:45:59;;;;;;;4.60;1.90;;;16.50;99.90;;;;;;4943093;29;20201;-90
2023/09/02 09:48:30;;;;;;;3.47;1.80;;;16.50;99.90;;;;;;4945975;29;20205;-91
2023/09/02 09:51:07;;;;;;;3.60;1.90;;;16.40;99.90;;;;;;4945935;29;20287;-92
2023/09/02 09:53:48;;;;;;;3.17;2.00;;;16.40;99.90;;;;;;4934267;29;20252;-91
2023/09/02 09:56:21;;;;;;;1.98;1.40;;;16.40;99.90;;;;;;4952503;29;20235;-92
2023/09/02 09:58:53;;;;;;;3.95;1.98;;;16.40;99.90;;;;;;4952736;29;20220;-92
2023/09/02 10:01:27;;;;;;;4.07;1.70;;;16.40;99.90;;;;;;4956078;29;20238;-91
2023/09/02 10:04:01;;;;;;;6.65;2.15;;;16.30;99.90;;;;;;4971965;29;20231;-90
2023/09/02 10:06:48;;;;;;;4.55;1.92;;;16.30;99.90;;;;;;4939267;29;20192;-92
2023/09/02 10:09:19;;;;;;;3.63;1.30;;;16.40;99.90;;;;;;4965200;29;20203;-91
2023/09/02 10:11:51;;;;;;;3.13;1.13;;;16.40;99.90;;;;;;4965914;29;20295;-91
2023/09/02 10:14:22;;;;;;;3.92;1.30;;;16.40;99.90;;;;;;4974455;28;20199;-89
2023/09/02 10:16:53;;;;;;;2.95;0.90;;;16.40;99.90;;;;;;4987644;28;20192;-89
2023/09/02 10:19:24;;;;;;;2.28;1.10;;;16.30;99.90;;;;;;4989985;28;20209;-91
2023/09/02 10:22:00;;;;;;;4.32;1.00;;;16.40;99.90;;;;;;4985954;28;20282;-91
2023/09/02 10:24:38;;;;;;;3.90;2.00;;;16.40;99.90;;;;;;4972171;28;20228;-90
2023/09/02 10:27:18;;;;;;;4.47;2.05;;;16.30;99.90;;;;;;4957165;29;20283;-91
2023/09/02 10:29:54;;;;;;;3.63;1.70;;;16.40;99.90;;;;;;4954889;29;20195;-88
2023/09/02 10:32:39;;;;;;;2.70;1.10;;;16.40;99.90;;;;;;4948394;29;20241;-91
2023/09/02 10:35:16;;;;;;;3.08;1.63;;;16.40;99.90;;;;;;4968509;29;20189;-90
2023/09/02 10:37:55;;;;;;;4.88;2.47;;;16.40;99.90;;;;;;4969039;29;20208;-91
2023/09/02 10:40:27;;;;;;;8.75;5.68;;;16.30;99.90;;;;;;4966916;29;20251;-90
2023/09/02 10:42:58;;;;;;;8.93;6.22;;;16.30;99.90;;;;;;4960750;28;20206;-91
2023/09/02 10:45:30;;;;;;;8.85;4.80;;;16.30;99.90;;;;;;4963662;28;20208;-90
2023/09/02 10:48:02;;;;;;;5.85;3.35;;;16.30;99.90;;;;;;4958060;28;20220;-92
2023/09/02 10:50:34;;;;;;;3.67;1.70;;;16.30;99.90;;;;;;4956403;28;20200;-91
2023/09/02 10:53:09;;;;;;;4.88;1.60;;;16.30;99.90;;;;;;4954810;28;20224;-89
2023/09/02 10:56:02;;;;;;;3.22;1.20;;;16.30;99.90;;;;;;4951126;28;20238;-90
2023/09/02 10:58:50;;;;;;;5.60;1.33;;;16.30;99.90;;;;;;4954850;28;20220;-91
2023/09/02 11:01:24;;;;;;;2.60;1.30;;;16.30;99.90;;;;;;4957967;28;20211;-90
2023/09/02 11:03:56;;;;;;;3.15;1.10;;;16.30;99.90;;;;;;4966152;28;20330;-91
2023/09/02 11:06:27;;;;;;;3.75;1.30;;;16.40;99.90;;;;;;4952868;28;20789;-92
2023/09/02 11:09:02;;;;;;;1.50;0.80;;;16.30;99.90;;;;;;4956305;28;20200;-91
2023/09/02 11:12:13;;;;;;;3.33;1.27;;;16.30;99.90;;;;;;4952321;28;20210;-92
2023/09/02 11:14:44;;;;;;;2.95;1.30;;;16.40;99.90;;;;;;4951872;28;20211;-91
2023/09/02 11:17:36;;;;;;;5.45;1.50;;;16.40;99.90;;;;;;4949621;28;20586;-92
2023/09/02 11:20:08;;;;;;;4.35;1.52;;;16.40;99.90;;;;;;4934522;28;20204;-91
2023/09/02 11:22:54;;;;;;;3.75;1.30;;;16.40;99.90;;;;;;4953825;28;20218;-90
2023/09/02 11:25:37;;;;;;;4.03;1.20;;;16.40;99.90;;;;;;4950145;28;20648;-91
2023/09/02 11:28:09;;;;;;;3.97;1.38;;;16.50;99.90;;;;;;4949588;28;20211;-92
2023/09/02 11:30:43;;;;;;;4.55;1.15;;;16.50;99.90;;;;;;4951176;28;20209;-90
2023/09/02 11:33:19;;;;;;;1.73;1.00;;;16.50;99.90;;;;;;4969532;29;20223;-88
2023/09/02 11:35:51;;;;;;;1.88;1.13;;;16.50;99.90;;;;;;4947129;29;20700;-89
2023/09/02 11:38:22;;;;;;;2.35;1.08;;;16.50;99.90;;;;;;4946785;28;20199;-89
2023/09/02 11:40:56;;;;;;;4.22;1.10;;;16.50;99.90;;;;;;4940268;28;20200;-90
2023/09/02 11:43:31;;;;;;;4.38;1.52;;;16.60;99.90;;;;;;4952380;28;21629;-89
2023/09/02 11:46:02;;;;;;;3.28;1.60;;;16.50;99.90;;;;;;4957535;28;20204;-89
2023/09/02 11:48:34;;;;;;;3.40;1.80;;;16.60;99.90;;;;;;4954712;29;20686;-91
2023/09/02 11:51:05;;;;;;;2.75;1.30;;;16.60;99.90;;;;;;4956366;29;20223;-90
2023/09/02 11:53:37;;;;;;;2.80;1.50;;;16.60;99.90;;;;;;4940346;29;20224;-91
2023/09/02 11:56:13;;;;;;;3.28;1.80;;;16.60;99.90;;;;;;4950328;29;20300;-91
2023/09/02 11:58:43;;;;;;;2.60;1.92;;;16.60;99.90;;;;;;4952157;29;20643;-92
2023/09/02 12:01:17;;;;;;;5.13;2.40;;;16.60;99.90;;;;;;4953749;29;20188;-92
2023/09/02 12:03:51;;;;;;;6.28;2.70;;;16.50;99.90;;;;;;4948998;29;20216;-91
2023/09/02 12:06:22;;;;;;;5.43;2.58;;;16.40;99.90;;;;;;4952673;28;20581;-91
2023/09/02 12:08:53;;;;;;;7.68;2.75;;;16.30;99.90;;;;;;4952698;29;20200;-90
2023/09/02 12:11:26;;;;;;;7.32;3.00;;;16.40;99.90;;;;;;4935804;29;20193;-89
2023/09/02 12:13:57;;;;;;;4.43;2.40;;;16.40;99.90;;;;;;4936992;29;20213;-90
2023/09/02 12:16:29;;;;;;;8.02;2.97;;;16.30;99.90;;;;;;4936728;29;20668;-90
2023/09/02 12:19:01;;;;;;;5.35;2.55;;;16.30;99.90;;;;;;4939799;29;20678;-88
2023/09/02 12:21:34;;;;;;;4.82;2.90;;;16.30;99.90;;;;;;4938657;29;20215;-90
2023/09/02 12:24:05;;;;;;;6.85;2.50;;;16.20;99.90;;;;;;4937389;29;20209;-90
2023/09/02 12:26:48;;;;;;;9.25;2.90;;;16.30;99.90;;;;;;4935572;29;20211;-90
2023/09/02 12:29:20;;;;;;;4.35;2.47;;;16.20;99.90;;;;;;4953819;29;20207;-88
2023/09/02 12:31:56;;;;;;;9.07;3.30;;;16.10;99.90;;;;;;4956674;29;20578;-89
2023/09/02 12:34:33;;;;;;;5.60;2.85;;;16.10;99.90;;;;;;4945208;29;20239;-89
2023/09/02 12:37:16;;;;;;;6.10;3.33;;;16.20;99.90;;;;;;4955202;29;20246;-90
2023/09/02 12:39:48;;;;;;;8.30;3.55;;;16.10;99.90;;;;;;4937204;29;20195;-90
2023/09/02 12:42:24;;;;;;;5.28;2.92;;;16.10;99.90;;;;;;4946763;29;20212;-90
2023/09/02 12:44:56;;;;;;;10.23;3.97;;;16.00;99.90;;;;;;4938915;28;20200;-90
2023/09/02 12:47:27;;;;;;;5.70;2.65;;;16.00;99.90;;;;;;4935402;29;20192;-89
2023/09/02 12:50:01;;;;;;;5.28;3.05;;;16.00;99.90;;;;;;4935362;29;20216;-89
2023/09/02 12:52:33;;;;;;;7.35;2.83;;;15.90;99.90;;;;;;4950285;29;20659;-89
2023/09/02 12:55:05;;;;;;;7.45;2.97;;;15.90;99.90;;;;;;4954475;29;20235;-89
2023/09/02 12:57:38;;;;;;;5.78;2.53;;;15.90;99.90;;;;;;4954853;29;20204;-89
2023/09/02 13:00:09;;;;;;;5.65;2.78;;;15.90;99.90;;;;;;4954697;29;20211;-89
2023/09/02 13:02:40;;;;;;;5.78;2.88;;;15.80;99.90;;;;;;4952313;28;20224;-90
2023/09/02 13:05:13;;;;;;;5.88;2.60;;;15.80;99.90;;;;;;4933326;28;20235;-90
2023/09/02 13:07:45;;;;;;;7.28;2.58;;;15.80;99.90;;;;;;4949561;28;20200;-91
2023/09/02 13:10:16;;;;;;;5.68;2.63;;;15.70;99.90;;;;;;4957901;28;20206;-91
2023/09/02 13:12:50;;;;;;;6.68;2.60;;;15.80;99.90;;;;;;4975643;28;20219;-91
2023/09/02 13:15:21;;;;;;;3.40;2.30;;;15.80;99.90;;;;;;4978125;28;20693;-91
2023/09/02 13:17:53;;;;;;;6.28;2.97;;;15.80;99.90;;;;;;4944286;28;20658;-91
2023/09/02 13:20:24;;;;;;;5.97;2.50;;;15.90;99.90;;;;;;4940383;28;20578;-90